Time;durP1;ratioP1;P1;durP2;ratioP2;P2;SDS_P1;SDS_P2;PMS_P1;PMS_P2;Temp;Humidity;BMP_temperature;BMP_pressure;BME280_temperature;BME280_humidity;BME280_pressure;Samples;Min_cycle;Max_cycle;Signal;HPM_P1;HPM_P2
2023/04/11 00:03:51;;;;;;;11.13;6.47;;;;;9.00;96100.00;;;;8383664;28;20259;-71
2023/04/11 00:07:54;;;;;;;9.40;5.77;;;;;8.90;96095.00;;;;8376323;28;20201;-71
2023/04/11 00:12:09;;;;;;;8.10;5.40;;;;;8.80;96093.00;;;;8387188;28;20204;-70
2023/04/11 00:16:11;;;;;;;11.20;6.03;;;;;8.80;96074.00;;;;8387742;28;20207;-71
2023/04/11 00:20:16;;;;;;;10.50;6.23;;;;;8.80;96055.00;;;;8382322;28;20238;-70
2023/04/11 00:24:20;;;;;;;11.17;5.97;;;;;8.70;96029.00;;;;8386107;28;20673;-70
2023/04/11 00:28:24;;;;;;;10.53;6.10;;;;;8.70;96024.00;;;;8378732;28;20954;-71
2023/04/11 00:32:37;;;;;;;11.00;6.33;;;;;8.70;96007.00;;;;8385691;28;20215;-71
2023/04/11 00:36:40;;;;;;;10.93;6.23;;;;;8.70;96007.00;;;;8384264;28;20208;-69
2023/04/11 00:40:45;;;;;;;8.60;6.03;;;;;8.60;95983.00;;;;8361883;28;20320;-70
2023/04/11 00:44:49;;;;;;;10.77;6.47;;;;;8.70;96011.00;;;;8382158;28;20219;-71
2023/04/11 00:48:53;;;;;;;10.87;6.60;;;;;8.70;96029.00;;;;8380838;28;20253;-71
2023/04/11 00:52:58;;;;;;;11.03;6.80;;;;;8.70;96038.00;;;;8375651;28;20292;-71
2023/04/11 00:57:03;;;;;;;11.03;6.43;;;;;8.80;96067.00;;;;8386427;28;20614;-71
2023/04/11 01:01:08;;;;;;;12.47;6.53;;;;;8.80;96078.00;;;;8387394;28;20285;-71
2023/04/11 01:05:13;;;;;;;10.10;6.53;;;;;8.80;96066.00;;;;8362230;28;20646;-70
2023/04/11 01:09:19;;;;;;;10.17;6.40;;;;;8.80;96048.00;;;;8388150;28;20282;-71
2023/04/11 01:13:22;;;;;;;9.97;6.33;;;;;8.90;96023.00;;;;8385310;28;20223;-70
2023/04/11 01:17:26;;;;;;;11.10;6.57;;;;;8.90;96006.00;;;;8385893;28;20310;-71
2023/04/11 01:21:30;;;;;;;10.77;7.00;;;;;8.90;96010.00;;;;8386165;28;20295;-71
2023/04/11 01:25:37;;;;;;;10.47;6.97;;;;;8.80;96007.00;;;;8376671;28;20283;-70
2023/04/11 01:29:40;;;;;;;11.33;6.43;;;;;8.70;95997.00;;;;8382608;28;20212;-71
2023/04/11 01:33:45;;;;;;;9.27;6.33;;;;;8.60;95988.00;;;;8379046;28;20196;-71
2023/04/11 01:37:48;;;;;;;10.80;6.13;;;;;8.60;95984.00;;;;8384029;28;20211;-71
2023/04/11 01:41:54;;;;;;;13.23;6.70;;;;;8.50;95966.00;;;;8384157;28;20594;-71
2023/04/11 01:45:59;;;;;;;11.37;6.87;;;;;8.40;95961.00;;;;8385103;28;20732;-71
2023/04/11 01:50:02;;;;;;;10.83;6.80;;;;;8.50;95954.00;;;;8391634;28;20200;-71
2023/04/11 01:54:06;;;;;;;12.37;7.07;;;;;8.50;95950.00;;;;8386226;28;20192;-71
2023/04/11 01:58:12;;;;;;;11.13;7.20;;;;;8.60;95948.00;;;;8381939;28;20545;-72
2023/04/11 02:02:15;;;;;;;13.07;7.25;;;;;8.60;95952.00;;;;8382229;28;20227;-71
2023/04/11 02:06:20;;;;;;;12.63;7.33;;;;;8.70;95952.00;;;;8385202;28;20207;-71
2023/04/11 02:10:23;;;;;;;12.07;7.10;;;;;8.70;95936.00;;;;8382470;28;20260;-71
2023/04/11 02:14:28;;;;;;;15.23;7.67;;;;;8.70;95919.00;;;;8392863;28;20247;-70
2023/04/11 02:18:32;;;;;;;10.97;7.07;;;;;8.70;95927.00;;;;8391043;28;20204;-71
2023/04/11 02:22:35;;;;;;;12.33;7.20;;;;;8.70;95920.00;;;;8390037;28;20239;-72
2023/04/11 02:26:40;;;;;;;11.10;7.30;;;;;8.70;95908.00;;;;8383290;28;20204;-71
2023/04/11 02:30:44;;;;;;;13.20;7.40;;;;;8.70;95916.00;;;;8378839;28;20200;-72
2023/04/11 02:34:51;;;;;;;14.53;7.80;;;;;8.50;95933.00;;;;8379640;28;20218;-71
2023/04/11 02:38:55;;;;;;;11.47;7.27;;;;;8.30;95948.00;;;;8371820;28;20201;-77
2023/04/11 02:43:01;;;;;;;12.70;7.80;;;;;8.10;95941.00;;;;8379370;28;20388;-75
2023/04/11 02:47:08;;;;;;;14.20;8.43;;;;;7.90;95930.00;;;;8381131;28;20291;-75
2023/04/11 02:51:11;;;;;;;13.40;8.13;;;;;7.80;95936.00;;;;8377966;28;20204;-75
2023/04/11 02:55:16;;;;;;;14.33;8.30;;;;;7.80;95926.00;;;;8382374;28;20962;-75
2023/04/11 02:59:20;;;;;;;16.33;8.87;;;;;7.80;95913.00;;;;8380695;28;20219;-75
2023/04/11 03:03:26;;;;;;;19.80;9.57;;;;;7.80;95911.00;;;;8373291;22;20233;-73
2023/04/11 03:07:30;;;;;;;16.23;9.23;;;;;7.60;95896.00;;;;8307616;28;20243;-77
2023/04/11 03:11:33;;;;;;;17.00;9.17;;;;;7.50;95906.00;;;;8327515;28;20192;-75
2023/04/11 03:15:36;;;;;;;20.23;10.07;;;;;7.60;95905.00;;;;8328237;28;20200;-77
2023/04/11 03:19:43;;;;;;;17.30;9.97;;;;;7.60;95898.00;;;;8320316;28;20212;-77
2023/04/11 03:23:51;;;;;;;16.90;9.23;;;;;7.60;95893.00;;;;8329855;28;20229;-75
2023/04/11 03:27:54;;;;;;;18.93;8.70;;;;;7.60;95894.00;;;;8322874;28;20293;-72
2023/04/11 03:31:56;;;;;;;16.13;9.50;;;;;7.60;95870.00;;;;8335531;28;20325;-74
2023/04/11 03:36:01;;;;;;;19.30;9.40;;;;;7.50;95853.00;;;;8330382;28;20795;-71
2023/04/11 03:40:07;;;;;;;20.17;9.87;;;;;7.50;95849.00;;;;8326900;28;20835;-77
2023/04/11 03:44:13;;;;;;;21.67;10.40;;;;;7.40;95854.00;;;;8326297;28;20744;-71
2023/04/11 03:48:20;;;;;;;19.63;10.30;;;;;7.40;95850.00;;;;8314480;28;20201;-72
2023/04/11 03:52:24;;;;;;;21.17;10.20;;;;;7.50;95849.00;;;;8321176;28;20661;-73
2023/04/11 03:56:28;;;;;;;19.37;10.37;;;;;7.50;95837.00;;;;8339165;28;20209;-74
2023/04/11 04:00:32;;;;;;;21.50;11.33;;;;;7.50;95839.00;;;;8329731;28;20235;-75
2023/04/11 04:04:37;;;;;;;21.77;11.17;;;;;7.50;95833.00;;;;8305933;28;20244;-75
2023/04/11 04:08:46;;;;;;;23.00;10.93;;;;;7.40;95841.00;;;;8315640;28;20267;-73
2023/04/11 04:12:49;;;;;;;20.10;11.00;;;;;7.40;95832.00;;;;8313929;28;20204;-73
2023/04/11 04:16:52;;;;;;;24.07;11.50;;;;;7.40;95832.00;;;;8328505;28;20366;-73
2023/04/11 04:20:55;;;;;;;26.43;12.17;;;;;7.40;95827.00;;;;8329596;28;20292;-76
2023/04/11 04:24:59;;;;;;;23.50;11.40;;;;;7.40;95834.00;;;;8320794;28;20283;-78
2023/04/11 04:29:04;;;;;;;23.63;11.10;;;;;7.50;95819.00;;;;8322507;28;20197;-75
2023/04/11 04:33:11;;;;;;;23.53;10.93;;;;;7.60;95824.00;;;;8339468;28;20925;-75
2023/04/11 04:37:20;;;;;;;24.00;11.73;;;;;7.60;95807.00;;;;8317378;28;20227;-75
2023/04/11 04:41:35;;;;;;;24.93;11.10;;;;;7.60;95800.00;;;;8335466;28;20601;-74
2023/04/11 04:45:40;;;;;;;22.80;11.23;;;;;7.50;95789.00;;;;8330495;28;20940;-75
2023/04/11 04:49:54;;;;;;;23.73;11.40;;;;;7.50;95790.00;;;;8318685;28;20193;-75
2023/04/11 04:54:03;;;;;;;25.90;11.87;;;;;7.60;95787.00;;;;8317838;28;20237;-75
2023/04/11 04:58:07;;;;;;;23.33;12.03;;;;;7.60;95789.00;;;;8317436;28;20232;-73
2023/04/11 05:02:11;;;;;;;25.60;13.47;;;;;7.60;95794.00;;;;8336181;28;20224;-73
2023/04/11 05:06:15;;;;;;;22.67;11.47;;;;;7.60;95784.00;;;;8339059;28;20691;-71
2023/04/11 05:10:21;;;;;;;26.90;12.07;;;;;7.60;95792.00;;;;8337510;28;20603;-77
2023/04/11 05:14:26;;;;;;;23.10;11.77;;;;;7.60;95816.00;;;;8311892;28;20225;-72
2023/04/11 05:18:29;;;;;;;22.23;11.70;;;;;7.70;95846.00;;;;8332960;28;20206;-72
2023/04/11 05:22:32;;;;;;;29.17;12.60;;;;;7.70;95849.00;;;;8338096;28;20231;-71
2023/04/11 05:26:36;;;;;;;25.00;12.63;;;;;7.80;95849.00;;;;8341058;28;20260;-72
2023/04/11 05:30:41;;;;;;;27.27;12.63;;;;;7.90;95844.00;;;;8348340;28;20244;-76
2023/04/11 05:34:53;;;;;;;27.67;12.30;;;;;8.00;95837.00;;;;8353032;28;20233;-73
2023/04/11 05:39:03;;;;;;;29.70;12.83;;;;;8.10;95817.00;;;;8333506;28;20266;-71
2023/04/11 05:43:13;;;;;;;28.73;14.10;;;;;8.30;95808.00;;;;8341826;28;20225;-78
2023/04/11 05:47:17;;;;;;;28.67;12.53;;;;;8.40;95811.00;;;;8321363;28;20220;-74
2023/04/11 05:51:22;;;;;;;27.27;12.37;;;;;8.50;95828.00;;;;8318625;28;20227;-76
2023/04/11 05:55:28;;;;;;;25.60;11.97;;;;;8.60;95818.00;;;;8338877;28;20208;-76
2023/04/11 05:59:32;;;;;;;28.73;12.17;;;;;8.70;95824.00;;;;8335461;28;20209;-73
2023/04/11 06:03:38;;;;;;;24.30;12.67;;;;;8.80;95830.00;;;;8342717;28;20862;-73
2023/04/11 06:07:42;;;;;;;28.27;13.20;;;;;8.90;95815.00;;;;8341075;28;20291;-74
2023/04/11 06:11:50;;;;;;;26.63;13.50;;;;;9.00;95828.00;;;;8345330;28;20209;-79
2023/04/11 06:15:53;;;;;;;22.43;11.67;;;;;9.00;95828.00;;;;8338633;28;20198;-74
2023/04/11 06:19:57;;;;;;;24.83;12.33;;;;;9.00;95824.00;;;;8340546;28;20547;-75
2023/04/11 06:24:05;;;;;;;24.37;11.97;;;;;9.10;95826.00;;;;8322609;28;20248;-75
2023/04/11 06:28:11;;;;;;;26.10;13.00;;;;;9.20;95824.00;;;;8338083;28;20227;-73
2023/04/11 06:32:15;;;;;;;24.37;12.03;;;;;9.40;95831.00;;;;8336091;28;20546;-73
2023/04/11 06:36:19;;;;;;;21.10;11.73;;;;;9.60;95840.00;;;;8336558;28;20198;-71
2023/04/11 06:40:22;;;;;;;22.13;10.80;;;;;9.80;95853.00;;;;8334530;28;20208;-75
2023/04/11 06:44:25;;;;;;;28.73;16.13;;;;;10.00;95856.00;;;;8325172;28;21117;-73
2023/04/11 06:48:28;;;;;;;22.13;12.77;;;;;10.10;95863.00;;;;8319426;28;20198;-76
2023/04/11 06:52:32;;;;;;;21.20;11.18;;;;;10.30;95866.00;;;;8336905;28;20243;-75
2023/04/11 06:56:39;;;;;;;17.02;8.90;;;;;10.30;95857.00;;;;8328779;28;20197;-73
2023/04/11 07:00:43;;;;;;;18.50;9.83;;;;;10.30;95866.00;;;;8320167;28;20192;-78
2023/04/11 07:04:49;;;;;;;16.65;9.18;;;;;10.20;95876.00;;;;8339250;28;20268;-75
2023/04/11 07:08:53;;;;;;;9.02;6.32;;;;;10.00;95896.00;;;;8333012;28;20212;-73
2023/04/11 07:12:57;;;;;;;3.63;2.80;;;;;9.80;95898.00;;;;8322837;28;20198;-72
2023/04/11 07:17:02;;;;;;;2.07;1.93;;;;;9.50;95912.00;;;;8328933;28;20856;-75
2023/04/11 07:21:09;;;;;;;2.45;2.08;;;;;9.40;95912.00;;;;8328003;28;20193;-76
2023/04/11 07:25:13;;;;;;;2.00;1.90;;;;;9.20;95926.00;;;;8332079;28;20398;-73
2023/04/11 07:29:19;;;;;;;1.83;1.73;;;;;9.20;95929.00;;;;8325419;28;20212;-75
2023/04/11 07:33:22;;;;;;;1.70;1.60;;;;;9.10;95940.00;;;;8312108;28;20194;-73
2023/04/11 07:37:25;;;;;;;2.15;1.80;;;;;9.00;95929.00;;;;8328271;28;20296;-77
2023/04/11 07:41:37;;;;;;;1.93;1.50;;;;;8.90;95952.00;;;;8308093;28;20514;-71
2023/04/11 07:45:40;;;;;;;3.00;1.40;;;;;8.70;95965.00;;;;8341377;28;20252;-71
2023/04/11 07:49:43;;;;;;;2.00;1.23;;;;;8.60;95974.00;;;;8341171;28;20240;-73
2023/04/11 07:53:47;;;;;;;1.73;1.30;;;;;8.50;95974.00;;;;8323115;28;20201;-75
2023/04/11 07:57:51;;;;;;;2.13;1.70;;;;;8.50;95977.00;;;;8334307;28;20210;-79
2023/04/11 08:02:03;;;;;;;2.23;1.57;;;;;8.60;95973.00;;;;8345727;28;20232;-72
2023/04/11 08:06:06;;;;;;;1.33;1.27;;;;;8.60;95987.00;;;;8348508;28;20225;-72
2023/04/11 08:10:10;;;;;;;3.40;1.83;;;;;8.60;95995.00;;;;8334360;28;20196;-73
2023/04/11 08:14:17;;;;;;;2.73;1.60;;;;;8.50;96014.00;;;;8334545;28;20219;-70
2023/04/11 08:18:23;;;;;;;2.80;1.70;;;;;8.40;96020.00;;;;8331050;28;20224;-70
2023/04/11 08:22:28;;;;;;;3.30;2.10;;;;;8.40;96009.00;;;;8340995;28;20197;-69
2023/04/11 08:26:34;;;;;;;2.93;1.47;;;;;8.40;95995.00;;;;8320815;28;20256;-69
2023/04/11 08:30:38;;;;;;;2.27;1.87;;;;;8.50;95973.00;;;;8321401;28;20255;-68
2023/04/11 08:34:43;;;;;;;4.60;2.83;;;;;8.50;95955.00;;;;8327082;28;20236;-71
2023/04/11 08:38:46;;;;;;;1.73;1.47;;;;;8.60;95932.00;;;;8323621;28;20209;-72
2023/04/11 08:42:49;;;;;;;3.63;1.80;;;;;8.70;95985.00;;;;8325177;28;20837;-69
2023/04/11 08:46:57;;;;;;;1.70;1.60;;;;;8.90;95994.00;;;;8323584;28;20260;-74
2023/04/11 08:51:00;;;;;;;3.03;1.70;;;;;9.10;95999.00;;;;8339035;28;20201;-77
2023/04/11 08:55:04;;;;;;;2.57;1.73;;;;;9.30;96001.00;;;;8344757;28;20221;-72
2023/04/11 08:59:06;;;;;;;3.83;1.67;;;;;9.50;95993.00;;;;8351149;28;20205;-74
2023/04/11 09:03:12;;;;;;;1.30;1.30;;;;;9.60;96007.00;;;;8342108;28;20842;-72
2023/04/11 09:07:16;;;;;;;5.70;1.63;;;;;9.80;95994.00;;;;8336644;28;20247;-75
2023/04/11 09:11:19;;;;;;;3.20;1.50;;;;;10.10;95997.00;;;;8324239;28;20219;-74
2023/04/11 09:15:26;;;;;;;2.63;1.60;;;;;10.30;96004.00;;;;8316405;28;20202;-72
2023/04/11 09:19:32;;;;;;;1.73;1.60;;;;;10.40;96008.00;;;;8329867;28;20239;-72
2023/04/11 09:23:38;;;;;;;2.78;1.27;;;;;10.90;95998.00;;;;8334544;28;20256;-73
2023/04/11 09:27:43;;;;;;;1.35;1.30;;;;;10.90;95998.00;;;;8321784;28;20261;-73
2023/04/11 09:31:46;;;;;;;1.60;1.50;;;;;10.70;96011.00;;;;8322928;28;20197;-73
2023/04/11 09:35:52;;;;;;;1.40;1.23;;;;;10.60;96011.00;;;;8327932;28;20210;-72
2023/04/11 09:39:59;;;;;;;1.50;1.40;;;;;10.60;96011.00;;;;8335193;28;20281;-73
2023/04/11 09:44:02;;;;;;;1.63;1.52;;;;;10.60;96005.00;;;;8342426;28;20656;-73
2023/04/11 09:48:05;;;;;;;1.75;1.50;;;;;10.60;95996.00;;;;8319828;28;20996;-72
2023/04/11 09:52:20;;;;;;;1.60;1.50;;;;;10.60;96002.00;;;;8336153;28;20271;-74
2023/04/11 09:56:26;;;;;;;1.58;1.50;;;;;10.80;95991.00;;;;8343075;28;20562;-72
2023/04/11 10:00:31;;;;;;;1.40;1.40;;;;;11.60;95985.00;;;;8344280;28;20274;-73
2023/04/11 10:04:34;;;;;;;2.00;1.30;;;;;12.10;95994.00;;;;8342522;28;20298;-73
2023/04/11 10:08:44;;;;;;;1.67;1.55;;;;;12.00;95998.00;;;;8327924;28;20220;-72
2023/04/11 10:12:49;;;;;;;4.85;1.40;;;;;11.80;95986.00;;;;8331536;28;20639;-72
2023/04/11 10:17:24;;;;;;;4.53;1.50;;;;;11.90;96002.00;;;;8340876;28;20201;-71
2023/04/11 10:21:41;;;;;;;5.43;1.75;;;;;12.20;95987.00;;;;8335963;28;20216;-72
2023/04/11 10:26:03;;;;;;;4.13;1.50;;;;;12.50;95998.00;;;;8341988;28;20226;-73
2023/04/11 10:30:08;;;;;;;5.50;1.80;;;;;12.70;95990.00;;;;8322035;28;20202;-72
2023/04/11 10:34:15;;;;;;;1.30;1.30;;;;;12.90;95995.00;;;;8327570;28;20197;-72
2023/04/11 10:38:48;;;;;;;1.17;1.17;;;;;13.30;95993.00;;;;8329888;28;20201;-72
2023/04/11 10:42:52;;;;;;;1.10;1.10;;;;;13.90;96004.00;;;;8306328;28;21273;-72
2023/04/11 10:46:55;;;;;;;1.27;1.27;;;;;13.60;96002.00;;;;8324226;28;20231;-72
2023/04/11 10:50:58;;;;;;;2.30;1.45;;;;;13.10;96005.00;;;;8337640;28;20209;-72
2023/04/11 10:55:16;;;;;;;2.25;1.45;;;;;12.80;96001.00;;;;8308537;28;20224;-72
2023/04/11 10:59:52;;;;;;;1.50;1.40;;;;;13.10;96011.00;;;;8329224;28;20189;-72
2023/04/11 11:04:05;;;;;;;1.60;1.50;;;;;13.60;96016.00;;;;8319599;28;20228;-72
2023/04/11 11:08:09;;;;;;;2.50;1.50;;;;;13.30;96014.00;;;;8319420;28;20315;-72
2023/04/11 11:12:14;;;;;;;1.65;1.58;;;;;13.30;96018.00;;;;8325614;28;20288;-72
2023/04/11 11:16:18;;;;;;;3.22;1.83;;;;;13.00;96024.00;;;;8313387;28;20235;-76
2023/04/11 11:20:23;;;;;;;5.45;1.77;;;;;11.70;96021.00;;;;8352757;28;20264;-72
2023/04/11 11:24:26;;;;;;;1.90;1.70;;;;;10.60;96015.00;;;;8365135;28;20299;-71
2023/04/11 11:28:29;;;;;;;1.50;1.50;;;;;10.70;96015.00;;;;8363770;28;20343;-73
2023/04/11 11:32:32;;;;;;;2.05;1.83;;;;;11.50;96018.00;;;;8364396;28;20202;-74
2023/04/11 11:36:41;;;;;;;2.28;1.92;;;;;11.20;96011.00;;;;8364849;28;20615;-75
2023/04/11 11:40:45;;;;;;;3.35;2.13;;;;;11.20;96011.00;;;;8360703;28;20622;-73
2023/04/11 11:44:48;;;;;;;3.10;1.90;;;;;11.80;96010.00;;;;8364034;28;20188;-73
2023/04/11 11:49:02;;;;;;;2.70;1.90;;;;;12.10;96010.00;;;;8364580;28;20217;-73
2023/04/11 11:53:14;;;;;;;3.30;2.05;;;;;12.40;96002.00;;;;8363107;28;20206;-73
2023/04/11 11:57:22;;;;;;;3.05;1.70;;;;;13.10;96010.00;;;;8364428;28;20233;-73
2023/04/11 12:01:25;;;;;;;2.38;1.73;;;;;12.90;96019.00;;;;8363570;28;20282;-73
2023/04/11 12:05:32;;;;;;;9.05;2.03;;;;;11.90;96060.00;;;;8364273;28;20781;-71
2023/04/11 12:09:39;;;;;;;8.30;2.40;;;;;9.90;96025.00;;;;8364379;28;20204;-70
2023/04/11 12:13:44;;;;;;;7.50;2.20;;;;;9.30;96012.00;;;;8363647;28;20674;-71
2023/04/11 12:17:52;;;;;;;8.40;2.15;;;;;9.60;96022.00;;;;8364226;28;20189;-71
2023/04/11 12:21:55;;;;;;;4.03;2.33;;;;;10.10;96017.00;;;;8363900;28;20216;-71
2023/04/11 12:25:59;;;;;;;5.77;1.90;;;;;10.40;96049.00;;;;8363216;28;20218;-71
2023/04/11 12:30:03;;;;;;;3.93;1.60;;;;;10.50;96043.00;;;;8363249;28;20292;-71
2023/04/11 12:34:08;;;;;;;2.20;1.73;;;;;10.30;96045.00;;;;8362905;28;20188;-71
2023/04/11 12:38:14;;;;;;;2.15;1.42;;;;;10.30;96023.00;;;;8363461;28;20529;-71
2023/04/11 12:42:26;;;;;;;5.50;1.60;;;;;10.60;96015.00;;;;8367787;28;20614;-71
2023/04/11 12:46:29;;;;;;;1.38;1.27;;;;;10.80;96011.00;;;;8369358;28;20245;-71
2023/04/11 12:50:40;;;;;;;2.55;1.38;;;;;11.10;96015.00;;;;8369028;28;20250;-71
2023/04/11 12:54:46;;;;;;;4.35;1.40;;;;;11.30;96028.00;;;;8365214;28;20549;-71
2023/04/11 12:58:50;;;;;;;1.42;1.20;;;;;11.60;96028.00;;;;8368202;28;20191;-71
2023/04/11 13:02:56;;;;;;;2.50;1.92;;;;;11.90;96011.00;;;;8367822;28;20250;-71
2023/04/11 13:07:02;;;;;;;6.28;1.48;;;;;12.40;96012.00;;;;8368425;28;20298;-71
2023/04/11 13:11:07;;;;;;;1.50;1.40;;;;;13.00;96013.00;;;;8367824;28;20207;-71
2023/04/11 13:15:14;;;;;;;1.80;1.40;;;;;13.40;96020.00;;;;8368616;28;20259;-72
2023/04/11 13:19:18;;;;;;;1.27;1.20;;;;;13.50;96008.00;;;;8366937;28;20303;-72
2023/04/11 13:23:21;;;;;;;3.50;1.30;;;;;13.10;96039.00;;;;8350847;28;20538;-72
2023/04/11 13:27:24;;;;;;;2.42;1.30;;;;;12.70;96055.00;;;;8368066;28;20224;-73
2023/04/11 13:31:33;;;;;;;1.88;1.55;;;;;11.70;96047.00;;;;8368118;28;20196;-73
2023/04/11 13:35:42;;;;;;;4.72;1.75;;;;;11.30;96060.00;;;;8367892;28;20199;-73
2023/04/11 13:39:44;;;;;;;3.40;1.63;;;;;11.30;96058.00;;;;8368057;28;20233;-73
2023/04/11 13:43:48;;;;;;;2.28;1.63;;;;;11.40;96068.00;;;;8367524;28;20205;-72
2023/04/11 13:47:54;;;;;;;2.08;1.73;;;;;11.50;96069.00;;;;8367257;28;20602;-72
2023/04/11 13:52:00;;;;;;;1.90;1.00;;;;;11.50;96076.00;;;;8367047;28;20198;-72
2023/04/11 13:56:05;;;;;;;4.47;1.50;;;;;11.20;96082.00;;;;8367270;28;20542;-72
2023/04/11 14:00:14;;;;;;;102.53;37.05;;;;;10.90;96117.00;;;;8367516;28;20317;-71
2023/04/11 14:04:18;;;;;;;5.70;2.50;;;;;10.10;96120.00;;;;8367893;28;20225;-73
2023/04/11 14:08:22;;;;;;;3.25;1.80;;;;;10.10;96092.00;;;;8367031;28;20247;-72
2023/04/11 14:12:26;;;;;;;6.93;5.90;;;;;10.50;96080.00;;;;8366527;28;20530;-72
2023/04/11 14:16:31;;;;;;;1.85;1.40;;;;;11.00;96074.00;;;;8349773;28;20199;-71
2023/04/11 14:20:38;;;;;;;5.50;1.60;;;;;11.50;96072.00;;;;8366526;28;20557;-73
2023/04/11 14:24:48;;;;;;;2.90;2.15;;;;;11.80;96062.00;;;;8367167;28;20529;-72
2023/04/11 14:28:51;;;;;;;115.35;49.65;;;;;12.20;96063.00;;;;8366370;28;20248;-72
2023/04/11 14:32:57;;;;;;;7.85;5.65;;;;;12.50;96070.00;;;;8366237;28;20241;-72
2023/04/11 14:37:02;;;;;;;5.50;2.53;;;;;12.80;96068.00;;;;8348019;28;20271;-72
2023/04/11 14:41:07;;;;;;;4.25;2.00;;;;;13.00;96060.00;;;;8331758;28;20230;-72
2023/04/11 14:45:12;;;;;;;4.68;1.92;;;;;13.40;96054.00;;;;8365199;28;20189;-72
2023/04/11 14:49:17;;;;;;;3.55;1.75;;;;;13.70;96061.00;;;;8364928;28;20258;-71
2023/04/11 14:53:27;;;;;;;4.93;1.80;;;;;13.90;96063.00;;;;8364784;28;20215;-71
2023/04/11 14:57:44;;;;;;;2.47;1.52;;;;;13.40;96068.00;;;;8365513;28;20195;-71
2023/04/11 15:01:50;;;;;;;5.10;2.28;;;;;13.10;96075.00;;;;8364976;28;20506;-71
2023/04/11 15:05:58;;;;;;;5.10;1.90;;;;;12.60;96054.00;;;;8365692;28;20277;-71
2023/04/11 15:10:06;;;;;;;6.47;2.10;;;;;12.60;96053.00;;;;8347200;28;20231;-70
2023/04/11 15:14:09;;;;;;;3.88;1.60;;;;;12.60;96054.00;;;;8363662;28;20197;-70
2023/04/11 15:18:21;;;;;;;2.45;1.50;;;;;12.40;96050.00;;;;8364792;28;20622;-70
2023/04/11 15:22:28;;;;;;;1.52;1.42;;;;;12.50;96041.00;;;;8363759;28;20195;-69
2023/04/11 15:26:32;;;;;;;2.35;1.05;;;;;12.80;96033.00;;;;8364833;28;20203;-68
2023/04/11 15:30:44;;;;;;;4.00;1.33;;;;;12.90;96049.00;;;;8363142;28;20196;-68
2023/04/11 15:34:53;;;;;;;4.63;1.15;;;;;13.00;96058.00;;;;8364282;28;20288;-69
2023/04/11 15:38:57;;;;;;;4.20;1.40;;;;;13.10;96047.00;;;;8347096;28;20196;-68
2023/04/11 15:43:01;;;;;;;1.10;1.10;;;;;13.30;96048.00;;;;8364061;28;20634;-68
2023/04/11 15:47:06;;;;;;;1.20;1.20;;;;;13.50;96061.00;;;;8364630;28;20216;-69
2023/04/11 15:51:12;;;;;;;1.30;1.30;;;;;13.60;96059.00;;;;8362394;28;20625;-70
2023/04/11 15:55:18;;;;;;;2.60;1.30;;;;;13.80;96057.00;;;;8360671;28;20657;-70
2023/04/11 15:59:23;;;;;;;3.05;1.27;;;;;13.90;96061.00;;;;8362649;28;20208;-70
2023/04/11 16:03:30;;;;;;;1.30;1.20;;;;;13.80;96062.00;;;;8345855;28;20225;-70
2023/04/11 16:07:33;;;;;;;2.00;1.38;;;;;13.90;96050.00;;;;8363852;28;20224;-71
2023/04/11 16:11:37;;;;;;;1.90;1.20;;;;;14.10;96043.00;;;;8346412;28;20629;-71
2023/04/11 16:15:43;;;;;;;2.05;1.40;;;;;14.20;96045.00;;;;8366701;28;20235;-70
2023/04/11 16:19:46;;;;;;;3.60;1.50;;;;;13.90;96048.00;;;;8370349;28;20184;-70
2023/04/11 16:23:49;;;;;;;1.67;1.58;;;;;14.20;96064.00;;;;8370773;28;20202;-71
2023/04/11 16:27:55;;;;;;;5.07;1.50;;;;;14.30;96073.00;;;;8369452;28;20213;-70
2023/04/11 16:32:04;;;;;;;3.42;1.38;;;;;14.10;96075.00;;;;8370050;28;20193;-70
2023/04/11 16:36:08;;;;;;;1.63;1.40;;;;;14.10;96071.00;;;;8353108;28;20216;-70
2023/04/11 16:40:11;;;;;;;3.72;1.67;;;;;14.40;96073.00;;;;8369617;28;20208;-72
2023/04/11 16:44:16;;;;;;;7.30;2.10;;;;;14.90;96079.00;;;;8369960;28;20205;-71
2023/04/11 16:48:23;;;;;;;1.55;1.45;;;;;15.50;96071.00;;;;8368437;28;20221;-70
2023/04/11 16:52:28;;;;;;;2.95;1.40;;;;;15.90;96081.00;;;;8369314;28;20181;-71
2023/04/11 16:56:31;;;;;;;4.97;1.30;;;;;16.10;96078.00;;;;8369149;28;20225;-71
2023/04/11 17:00:37;;;;;;;2.60;1.33;;;;;15.40;96085.00;;;;8368280;28;20200;-71
2023/04/11 17:04:43;;;;;;;1.58;1.48;;;;;14.40;96078.00;;;;8369589;28;20230;-71
2023/04/11 17:08:46;;;;;;;3.20;1.38;;;;;13.70;96067.00;;;;8369290;28;20212;-71
2023/04/11 17:12:49;;;;;;;4.20;1.35;;;;;13.20;96072.00;;;;8368590;28;20211;-71
2023/04/11 17:16:54;;;;;;;2.05;1.52;;;;;12.80;96079.00;;;;8368050;28;20231;-70
2023/04/11 17:20:59;;;;;;;3.35;1.45;;;;;12.50;96075.00;;;;8368125;28;20654;-70
2023/04/11 17:25:06;;;;;;;4.50;1.88;;;;;12.20;96080.00;;;;8368473;28;20188;-70
2023/04/11 17:29:09;;;;;;;1.52;1.40;;;;;12.00;96084.00;;;;8366281;28;20227;-70
2023/04/11 17:33:13;;;;;;;3.13;1.33;;;;;11.70;96074.00;;;;8367946;28;20581;-70
2023/04/11 17:37:21;;;;;;;3.03;1.50;;;;;11.50;96085.00;;;;8368159;28;20243;-69
2023/04/11 17:41:23;;;;;;;2.30;1.40;;;;;11.30;96088.00;;;;8366789;28;20193;-70
2023/04/11 17:45:26;;;;;;;4.35;1.42;;;;;11.10;96097.00;;;;8364104;28;20198;-70
2023/04/11 17:49:29;;;;;;;3.45;1.77;;;;;11.00;96099.00;;;;8366750;28;20220;-70
2023/04/11 17:53:36;;;;;;;3.33;1.50;;;;;10.80;96094.00;;;;8366534;28;20200;-71
2023/04/11 17:57:40;;;;;;;3.37;1.57;;;;;10.60;96098.00;;;;8366801;28;20203;-70
2023/04/11 18:01:45;;;;;;;3.07;1.50;;;;;10.50;96099.00;;;;8364065;28;20198;-70
2023/04/11 18:05:50;;;;;;;1.77;1.37;;;;;10.30;96099.00;;;;8367444;28;20197;-70
2023/04/11 18:09:55;;;;;;;3.27;1.73;;;;;10.10;96105.00;;;;8366899;28;20227;-70
2023/04/11 18:14:01;;;;;;;6.80;2.10;;;;;9.90;96101.00;;;;8366711;28;20193;-70
2023/04/11 18:18:08;;;;;;;5.83;1.67;;;;;9.70;96108.00;;;;8366395;28;20189;-69
2023/04/11 18:22:11;;;;;;;3.53;1.50;;;;;9.30;96107.00;;;;8367119;28;20530;-70
2023/04/11 18:26:18;;;;;;;3.47;1.48;;;;;9.00;96112.00;;;;8365807;28;20228;-70
2023/04/11 18:30:23;;;;;;;4.57;1.60;;;;;8.70;96112.00;;;;8366264;28;20274;-70
2023/04/11 18:34:26;;;;;;;3.93;2.00;;;;;8.40;96114.00;;;;8348723;28;20200;-70
2023/04/11 18:38:31;;;;;;;3.17;1.90;;;;;8.10;96113.00;;;;8365922;28;20192;-70
2023/04/11 18:42:38;;;;;;;5.57;1.80;;;;;7.90;96121.00;;;;8365988;28;20208;-70
2023/04/11 18:46:43;;;;;;;5.43;2.10;;;;;7.80;96113.00;;;;8366296;28;20185;-70
2023/04/11 18:51:07;;;;;;;3.43;1.70;;;;;7.50;96118.00;;;;8365607;28;20665;-70
2023/04/11 18:55:15;;;;;;;6.00;2.30;;;;;7.30;96120.00;;;;8365177;28;20181;-69
2023/04/11 18:59:24;;;;;;;2.40;1.93;;;;;7.10;96124.00;;;;8365684;28;20241;-69
2023/04/11 19:03:31;;;;;;;4.53;1.73;;;;;6.90;96137.00;;;;8365514;28;20247;-69
2023/04/11 19:07:36;;;;;;;5.63;2.37;;;;;6.70;96139.00;;;;8366298;28;20197;-69
2023/04/11 19:11:41;;;;;;;2.13;1.93;;;;;6.50;96142.00;;;;8365075;28;20274;-70
2023/04/11 19:15:46;;;;;;;2.43;2.23;;;;;6.30;96132.00;;;;8364654;28;20203;-70
2023/04/11 19:19:49;;;;;;;7.33;2.87;;;;;6.10;96123.00;;;;8364707;28;20200;-70
2023/04/11 19:23:55;;;;;;;4.90;2.33;;;;;5.90;96129.00;;;;8365674;28;20203;-71
2023/04/11 19:28:02;;;;;;;8.23;2.17;;;;;5.70;96127.00;;;;8361250;28;20193;-71
2023/04/11 19:32:08;;;;;;;6.00;2.47;;;;;5.60;96125.00;;;;8363777;28;20602;-71
2023/04/11 19:36:16;;;;;;;5.50;2.50;;;;;5.50;96132.00;;;;8359865;28;20288;-70
2023/04/11 19:40:22;;;;;;;3.77;2.33;;;;;5.30;96131.00;;;;8354388;28;20261;-71
2023/04/11 19:44:25;;;;;;;6.40;2.50;;;;;5.20;96120.00;;;;8364272;28;20610;-70
2023/04/11 19:48:30;;;;;;;3.90;2.77;;;;;5.00;96125.00;;;;8364622;28;20675;-71
2023/04/11 19:52:33;;;;;;;11.43;2.80;;;;;4.90;96117.00;;;;8370175;28;20202;-71
2023/04/11 19:56:37;;;;;;;8.43;2.60;;;;;4.80;96118.00;;;;8370482;28;20200;-70
2023/04/11 20:00:40;;;;;;;7.17;2.80;;;;;4.70;96099.00;;;;8369809;28;20199;-70
2023/04/11 20:04:57;;;;;;;3.63;2.60;;;;;4.60;96105.00;;;;8371295;28;20227;-71
2023/04/11 20:08:59;;;;;;;6.40;3.10;;;;;4.60;96094.00;;;;8370549;28;20210;-71
2023/04/11 20:13:03;;;;;;;6.30;3.10;;;;;4.50;96096.00;;;;8370997;28;20198;-71
2023/04/11 20:17:07;;;;;;;3.40;2.73;;;;;4.50;96095.00;;;;8370634;28;20205;-72
2023/04/11 20:21:14;;;;;;;6.27;3.10;;;;;4.40;96087.00;;;;8369749;28;20194;-72
2023/04/11 20:25:18;;;;;;;8.00;3.00;;;;;4.30;96083.00;;;;8353107;28;20280;-72
2023/04/11 20:29:23;;;;;;;11.10;3.50;;;;;4.20;96078.00;;;;8368898;28;20285;-72
2023/04/11 20:33:27;;;;;;;5.70;3.17;;;;;4.20;96071.00;;;;8370159;28;20199;-72